« Back
NWS Peachtree City, Ga » Text Product » AHN Terminal Aerodrome Forecast


Printer-friendly Version
Current Version              Previous Versions:   1  2  3  4  5  6  7  8  9  

Terminal Aerodrome Forecast

334
FTUS42 KFFC 181600 AAA
TAFAHN
TAF AMD
KAHN 181609Z 1816/1912 08010KT P6SM -RA OVC040
     FM181800 06013G23KT 5SM SHRA OVC015
     FM182300 05015G25KT 4SM SHRA BR OVC008
     FM190200 07018G28KT 3SM SHRA BR OVC008=



USA.gov is the U.S. government's official web portal to all federal, state and local government web resources and services.